This is the latest recevied weather packets stored in our database for station/object N5XJB. If no packets are shown the sender has not sent any weather packets the latest 10 day(s).
| Time | Temp. | Humidity | Pressure | Rain* | Wind** | Luminosity | Snow |
|---|---|---|---|---|---|---|---|
| 1777924550 | 29.44° C | 53% | 1014.1 hPa | 0 mm | - | 573 W/m² | - |
| 1777924246 | 28.89° C | 51% | 1014.1 hPa | 0 mm | - | 864 W/m² | - |
| 1777923943 | 29.44° C | 51% | 1014.1 hPa | 0 mm | - | 391 W/m² | - |
| 1777923638 | 30° C | 50% | 1014.1 hPa | 0 mm | - | 322 W/m² | - |
| 1777923335 | 29.44° C | 52% | 1014.4 hPa | 0 mm | - | 1056 W/m² | - |
| 1777923034 | 29.44° C | 52% | 1014.4 hPa | 0 mm | - | 375 W/m² | - |
| 1777922732 | 28.89° C | 53% | 1014.4 hPa | 0 mm | - | 826 W/m² | - |
| 1777922430 | 28.33° C | 53% | 1014.8 hPa | 0 mm | - | 1068 W/m² | - |
| 1777922127 | 28.89° C | 52% | 1014.4 hPa | 0 mm | - | 301 W/m² | - |
| 1777921823 | 29.44° C | 50% | 1014.4 hPa | 0 mm | - | 1070 W/m² | - |
| 1777921519 | 29.44° C | 50% | 1014.8 hPa | 0 mm | - | 669 W/m² | - |
| 1777921215 | 29.44° C | 53% | 1014.8 hPa | 0 mm | - | 482 W/m² | - |
| 1777920913 | 28.89° C | 52% | 1014.8 hPa | 0 mm | - | 424 W/m² | - |
| 1777920609 | 28.33° C | 53% | 1015.1 hPa | 0 mm | - | 450 W/m² | - |
| 1777920304 | 28.33° C | 52% | 1015.1 hPa | 0 mm | - | 1060 W/m² | - |
| 1777920000 | 27.78° C | 55% | 1015.1 hPa | 0 mm | - | 1053 W/m² | - |
| 1777919698 | 28.33° C | 53% | 1015.1 hPa | 0 mm | - | 1026 W/m² | - |
| 1777919396 | 28.33° C | 55% | 1014.8 hPa | 0 mm | - | 383 W/m² | - |
| 1777919092 | 28.89° C | 51% | 1015.1 hPa | 0 mm | - | 299 W/m² | - |
| 1777918790 | 28.89° C | 52% | 1014.8 hPa | 0 mm | - | 983 W/m² | - |
| 1777918486 | 28.89° C | 53% | 1014.8 hPa | 0 mm | - | 355 W/m² | - |
| 1777918185 | 28.33° C | 54% | 1015.1 hPa | 0 mm | - | 1086 W/m² | - |
| 1777917884 | 28.89° C | 51% | 1015.1 hPa | 0 mm | - | 888 W/m² | - |
| 1777917581 | 28.33° C | 50% | 1015.4 hPa | 0 mm | - | 364 W/m² | - |
| 1777917278 | 27.78° C | 53% | 1015.8 hPa | 0 mm | - | 1004 W/m² | - |
* Rain latest hour (hover to see other rain measurements)
** Current wind speed in m/s (hover to see current wind gust speed)